Time;durP1;ratioP1;P1;durP2;ratioP2;P2;SDS_P1;SDS_P2;PMS_P1;PMS_P2;Temp;Humidity;BMP_temperature;BMP_pressure;BME280_temperature;BME280_humidity;BME280_pressure;Samples;Min_cycle;Max_cycle;Signal;HPM_P1;HPM_P2
2021/04/29 00:02:08;;;;;;;27.40;15.05;;;;;;;7.98;46.46;100032.86;1681130;82;25867;-74
2021/04/29 00:04:36;;;;;;;26.02;16.20;;;;;;;7.99;46.67;100021.70;1683437;81;25791;-73
2021/04/29 00:07:03;;;;;;;28.35;16.57;;;;;;;7.95;46.68;100021.75;1705641;82;26057;-73
2021/04/29 00:09:33;;;;;;;33.53;16.80;;;;;;;7.92;46.71;100022.10;1714062;81;25861;-72
2021/04/29 00:12:00;;;;;;;26.65;16.15;;;;;;;7.90;46.94;100019.63;1764482;79;27586;-73
2021/04/29 00:14:27;;;;;;;28.90;16.23;;;;;;;7.87;46.88;100020.52;1724419;80;25727;-72
2021/04/29 00:16:54;;;;;;;26.02;15.38;;;;;;;7.86;46.96;100015.68;1769825;79;25747;-73
2021/04/29 00:19:22;;;;;;;25.72;15.35;;;;;;;7.83;46.92;100011.23;1754629;80;25854;-73
2021/04/29 00:21:49;;;;;;;27.75;16.95;;;;;;;7.83;46.95;100016.56;1735947;81;25787;-73
2021/04/29 00:24:16;;;;;;;28.02;16.10;;;;;;;7.81;47.08;100008.72;1674140;82;28490;-73
2021/04/29 00:26:44;;;;;;;25.90;15.90;;;;;;;7.80;47.16;100011.08;1722661;80;26234;-73
2021/04/29 00:29:11;;;;;;;27.45;15.60;;;;;;;7.75;47.09;100006.80;1731636;80;26263;-73
2021/04/29 00:31:38;;;;;;;27.37;15.53;;;;;;;7.71;47.13;100009.01;1742926;80;26390;-73
2021/04/29 00:34:06;;;;;;;28.02;16.42;;;;;;;7.70;47.27;100007.34;1737076;80;25766;-73
2021/04/29 00:36:33;;;;;;;25.77;15.15;;;;;;;7.68;47.47;100000.03;1706397;80;27697;-73
2021/04/29 00:39:00;;;;;;;31.87;16.15;;;;;;;7.65;47.35;99999.08;1775625;79;26414;-73
2021/04/29 00:41:28;;;;;;;29.85;15.55;;;;;;;7.64;47.63;100000.08;1764537;79;26274;-73
2021/04/29 00:43:55;;;;;;;26.07;15.58;;;;;;;7.60;47.56;100005.95;1716341;80;25723;-73
2021/04/29 00:46:22;;;;;;;24.12;15.75;;;;;;;7.58;47.61;99999.98;1722873;80;25984;-74
2021/04/29 00:48:50;;;;;;;27.60;14.95;;;;;;;7.56;47.86;100002.00;1741371;80;27517;-73
2021/04/29 00:51:19;;;;;;;27.20;16.55;;;;;;;7.53;47.84;99998.35;1763382;79;25399;-73
2021/04/29 00:53:47;;;;;;;26.80;16.17;;;;;;;7.53;48.15;99993.86;1725724;80;25803;-73
2021/04/29 00:56:14;;;;;;;31.37;17.00;;;;;;;7.49;48.11;99989.06;1727927;81;26531;-73
2021/04/29 00:58:42;;;;;;;30.32;15.93;;;;;;;7.47;48.32;99993.25;1720594;81;26407;-73
2021/04/29 01:01:10;;;;;;;28.70;16.67;;;;;;;7.45;48.39;99992.61;1750061;81;27505;-73
2021/04/29 01:04:01;;;;;;;28.57;17.02;;;;;;;7.43;48.39;99987.13;1702703;81;26496;-73
2021/04/29 01:06:45;;;;;;;28.87;16.77;;;;;;;7.40;48.63;99988.31;1723805;81;25754;-73
2021/04/29 01:09:29;;;;;;;28.98;16.52;;;;;;;7.45;48.76;99994.44;1810086;77;25682;-73
2021/04/29 01:12:05;;;;;;;28.27;16.73;;;;;;;7.33;48.63;99985.23;1722856;80;26557;-72
2021/04/29 01:14:32;;;;;;;27.75;15.53;;;;;;;7.30;48.87;99978.43;1720976;80;28491;-73
2021/04/29 01:17:01;;;;;;;25.35;16.57;;;;;;;7.28;49.08;99978.28;1674927;82;25831;-74
2021/04/29 01:19:44;;;;;;;26.90;16.27;;;;;;;7.27;49.17;99982.77;1720606;80;26386;-73
2021/04/29 01:22:13;;;;;;;28.77;15.65;;;;;;;7.22;49.11;99986.50;1695221;80;25801;-72
2021/04/29 01:25:07;;;;;;;28.10;16.37;;;;;;;7.16;49.28;99982.40;1749344;80;25729;-74
2021/04/29 01:27:36;;;;;;;28.17;16.02;;;;;;;7.12;49.40;99978.44;1707167;82;27542;-74
2021/04/29 01:30:13;;;;;;;25.37;15.35;;;;;;;7.05;49.52;99974.34;1722582;80;25823;-73
2021/04/29 01:32:41;;;;;;;25.23;15.90;;;;;;;7.03;49.78;99975.82;1718877;82;25808;-73
2021/04/29 01:35:11;;;;;;;32.33;17.23;;;;;;;7.00;49.84;99970.03;1693734;82;25835;-73
2021/04/29 01:37:39;;;;;;;27.60;16.05;;;;;;;6.96;49.93;99976.73;1690312;83;25771;-72
2021/04/29 01:40:10;;;;;;;28.77;16.20;;;;;;;6.91;49.98;99971.10;1702997;80;28284;-74
2021/04/29 01:42:37;;;;;;;26.87;15.65;;;;;;;6.89;50.14;99981.10;1708172;80;35000;-74
2021/04/29 01:45:06;;;;;;;28.55;15.95;;;;;;;6.86;50.33;99975.63;1673745;82;25846;-73
2021/04/29 01:47:34;;;;;;;33.50;16.70;;;;;;;6.85;50.40;99971.82;1712957;80;26068;-73
2021/04/29 01:50:06;;;;;;;28.70;16.42;;;;;;;6.83;50.62;99976.00;1701475;80;25877;-73
2021/04/29 01:52:34;;;;;;;29.45;17.30;;;;;;;6.80;50.55;99972.88;1756570;80;27524;-73
2021/04/29 01:55:04;;;;;;;31.57;17.12;;;;;;;6.77;50.63;99970.56;1698079;80;26082;-73
2021/04/29 01:57:31;;;;;;;34.27;17.05;;;;;;;6.77;50.77;99979.88;1740777;80;25705;-73
2021/04/29 01:59:59;;;;;;;30.45;15.85;;;;;;;6.72;51.15;99975.57;1715796;80;25943;-73
2021/04/29 02:02:26;;;;;;;31.10;18.42;;;;;;;6.68;51.33;99974.27;1751523;80;25944;-73
2021/04/29 02:04:53;;;;;;;30.75;16.20;;;;;;;6.68;51.36;99976.94;1667626;82;28528;-73
2021/04/29 02:07:21;;;;;;;28.00;16.80;;;;;;;6.62;51.36;99979.81;1694520;80;25853;-74
2021/04/29 02:09:49;;;;;;;27.35;17.55;;;;;;;6.61;51.61;99979.97;1680004;80;26984;-73
2021/04/29 02:12:17;;;;;;;28.62;17.77;;;;;;;6.58;51.55;99970.53;1747742;80;25829;-73
2021/04/29 02:14:58;;;;;;;30.25;16.23;;;;;;;6.59;51.78;99972.66;1704027;80;25951;-73
2021/04/29 02:17:34;;;;;;;31.48;18.12;;;;;;;6.57;51.72;99970.69;1741695;80;28447;-73
2021/04/29 02:20:05;;;;;;;28.25;17.65;;;;;;;6.56;51.76;99963.23;1743282;80;25802;-73
2021/04/29 02:22:36;;;;;;;31.73;17.73;;;;;;;6.55;51.94;99964.22;1745350;80;25832;-72
2021/04/29 02:25:05;;;;;;;29.32;17.60;;;;;;;6.53;52.06;99959.58;1703312;80;25878;-72
2021/04/29 02:27:34;;;;;;;34.03;18.35;;;;;;;6.51;52.01;99962.08;1700948;80;25828;-73
2021/04/29 02:30:09;;;;;;;34.43;17.92;;;;;;;6.50;51.96;99959.11;1727897;80;27312;-73
2021/04/29 02:32:37;;;;;;;28.62;16.87;;;;;;;6.49;52.19;99961.43;1744777;80;25873;-73
2021/04/29 02:35:08;;;;;;;29.75;17.73;;;;;;;6.45;52.36;99961.46;1697723;80;25614;-73
2021/04/29 02:37:37;;;;;;;27.62;16.95;;;;;;;6.45;52.28;99962.30;1721349;80;25748;-73
2021/04/29 02:40:08;;;;;;;28.92;16.87;;;;;;;6.43;52.58;99953.66;1723027;80;25906;-73
2021/04/29 02:42:35;;;;;;;;;;;;;;;6.43;52.43;99949.67;1736572;80;27539;-73
2021/04/29 02:45:03;;;;;;;29.63;17.42;;;;;;;6.42;52.77;99957.31;1700274;80;25789;-74
2021/04/29 02:47:30;;;;;;;29.37;18.20;;;;;;;6.40;52.80;99953.16;1717972;80;25765;-73
2021/04/29 02:49:58;;;;;;;29.60;19.12;;;;;;;6.41;52.90;99954.34;1719289;80;25636;-73
2021/04/29 02:52:25;;;;;;;27.37;17.25;;;;;;;6.43;52.88;99948.84;1707340;80;26065;-73
2021/04/29 02:54:54;;;;;;;32.25;18.48;;;;;;;6.40;52.98;99948.68;1673460;83;27518;-73
2021/04/29 02:57:22;;;;;;;24.72;17.37;;;;;;;6.37;53.07;99950.38;1668241;83;25463;-73
2021/04/29 02:59:50;;;;;;;34.05;17.45;;;;;;;6.38;53.34;99952.52;1667097;83;25732;-73
2021/04/29 03:02:17;;;;;;;31.55;17.73;;;;;;;6.36;53.29;99948.71;1644657;83;25907;-73
2021/04/29 03:04:45;;;;;;;30.68;17.87;;;;;;;6.34;53.53;99953.88;1640222;83;26663;-74
2021/04/29 03:07:12;;;;;;;31.57;19.02;;;;;;;6.33;53.66;99949.58;1668162;83;26851;-73
2021/04/29 03:09:40;;;;;;;27.05;16.23;;;;;;;6.32;53.82;99951.40;1642597;83;25863;-73
2021/04/29 03:12:08;;;;;;;29.35;18.62;;;;;;;6.32;53.93;99950.56;1633525;83;25827;-73
2021/04/29 03:14:35;;;;;;;29.57;17.25;;;;;;;6.30;54.10;99947.25;1630877;84;26238;-73
2021/04/29 03:17:03;;;;;;;29.90;19.37;;;;;;;6.27;53.90;99947.09;1639644;83;25499;-73
2021/04/29 03:19:30;;;;;;;30.25;17.52;;;;;;;6.27;54.21;99947.09;1637310;84;27419;-73
2021/04/29 03:21:57;;;;;;;27.73;18.80;;;;;;;6.26;54.43;99948.11;1640039;83;25906;-73
2021/04/29 03:24:25;;;;;;;29.77;16.82;;;;;;;6.27;54.57;99948.92;1659391;84;25782;-73
2021/04/29 03:26:52;;;;;;;30.75;18.57;;;;;;;6.27;54.82;99955.07;1657059;83;25903;-73
2021/04/29 03:29:19;;;;;;;38.38;20.30;;;;;;;6.23;54.82;99951.11;1644800;83;25800;-73
2021/04/29 03:31:47;;;;;;;27.48;18.00;;;;;;;6.21;55.00;99949.13;1641304;83;27553;-73
2021/04/29 03:34:14;;;;;;;34.90;18.75;;;;;;;6.19;55.01;99953.80;1638838;85;26387;-73
2021/04/29 03:36:41;;;;;;;28.42;18.23;;;;;;;6.18;55.20;99956.11;1653780;83;25766;-73
2021/04/29 03:39:09;;;;;;;29.55;18.25;;;;;;;6.19;55.33;99949.80;1660724;83;26412;-73
2021/04/29 03:41:36;;;;;;;32.73;19.42;;;;;;;6.18;55.51;99950.30;1638483;83;26195;-74
2021/04/29 03:44:04;;;;;;;33.55;19.27;;;;;;;6.16;55.76;99944.83;1659275;83;27552;-73
2021/04/29 03:46:31;;;;;;;37.42;19.87;;;;;;;6.17;55.49;99946.49;1660924;83;25772;-74
2021/04/29 03:48:58;;;;;;;36.28;19.57;;;;;;;6.19;55.76;99951.97;1685427;82;25925;-74
2021/04/29 03:51:25;;;;;;;33.15;18.82;;;;;;;6.19;55.64;99949.80;1632874;85;25995;-73
2021/04/29 03:53:53;;;;;;;31.95;19.62;;;;;;;6.20;55.68;99949.63;1646001;83;25945;-73
2021/04/29 03:56:21;;;;;;;29.27;18.87;;;;;;;6.23;56.10;99951.95;1652230;85;27561;-73
2021/04/29 03:58:48;;;;;;;33.02;20.00;;;;;;;6.28;56.00;99943.94;1617236;83;25927;-73
2021/04/29 04:01:15;;;;;;;32.78;20.27;;;;;;;6.32;56.35;99943.91;1634263;83;25814;-73
2021/04/29 04:03:43;;;;;;;36.90;21.73;;;;;;;6.32;56.23;99953.22;1643152;85;25602;-73
2021/04/29 04:06:12;;;;;;;40.40;22.13;;;;;;;6.32;56.22;99942.09;1606820;83;26014;-73
2021/04/29 04:08:39;;;;;;;38.85;21.87;;;;;;;6.37;56.49;99950.88;1625997;85;28161;-73
2021/04/29 04:11:06;;;;;;;32.03;20.48;;;;;;;6.40;56.41;99947.84;1641441;83;25837;-73
2021/04/29 04:13:34;;;;;;;35.17;19.50;;;;;;;6.44;56.63;99949.98;1670442;83;25776;-74
2021/04/29 04:16:02;;;;;;;32.40;19.48;;;;;;;6.46;56.50;99951.97;1650819;83;25865;-73
2021/04/29 04:18:29;;;;;;;29.80;19.42;;;;;;;6.50;56.72;99946.61;1652184;83;25649;-72
2021/04/29 04:20:57;;;;;;;35.13;18.85;;;;;;;6.54;56.66;99951.94;1636949;83;27626;-73
2021/04/29 04:23:24;;;;;;;33.45;20.52;;;;;;;6.57;56.87;99949.40;1660112;83;26112;-73
2021/04/29 04:25:52;;;;;;;36.77;20.50;;;;;;;6.60;56.85;99954.38;1627321;83;25792;-74
2021/04/29 04:28:19;;;;;;;43.10;22.17;;;;;;;6.61;57.10;99943.55;1641182;85;25924;-74
2021/04/29 04:30:47;;;;;;;37.00;23.27;;;;;;;6.59;57.26;99946.05;1652133;85;25862;-72
2021/04/29 04:33:14;;;;;;;34.45;20.23;;;;;;;6.60;57.37;99943.73;1630259;85;27552;-74
2021/04/29 04:35:41;;;;;;;31.37;20.57;;;;;;;6.61;57.80;99944.88;1657305;83;26076;-74
2021/04/29 04:38:09;;;;;;;34.88;21.23;;;;;;;6.62;57.74;99941.72;1647852;85;25929;-73
2021/04/29 04:40:36;;;;;;;37.28;21.37;;;;;;;6.65;58.03;99947.51;1606104;85;26241;-73
2021/04/29 04:43:03;;;;;;;35.45;19.92;;;;;;;6.68;57.84;99939.19;1650658;85;25477;-73
2021/04/29 04:45:31;;;;;;;32.08;20.82;;;;;;;6.74;58.06;99946.95;1669921;85;28440;-73
2021/04/29 04:47:58;;;;;;;33.78;20.82;;;;;;;6.79;58.14;99943.26;1627104;85;26440;-73
2021/04/29 04:50:25;;;;;;;43.45;21.07;;;;;;;6.83;58.35;99945.39;1629689;85;25908;-73
2021/04/29 04:52:53;;;;;;;31.70;18.92;;;;;;;6.89;58.48;99939.84;1644194;85;25990;-74
2021/04/29 04:55:20;;;;;;;31.87;19.62;;;;;;;6.96;58.55;99941.63;1650970;85;25851;-74
2021/04/29 04:57:47;;;;;;;30.12;20.00;;;;;;;7.02;58.64;99941.39;1626198;85;28480;-73
2021/04/29 05:00:16;;;;;;;32.50;20.77;;;;;;;7.07;58.75;99932.37;1636887;85;25794;-73
2021/04/29 05:02:44;;;;;;;35.45;18.07;;;;;;;7.12;58.69;99930.50;1651509;85;25964;-74
2021/04/29 05:05:13;;;;;;;36.75;21.93;;;;;;;7.19;59.23;99920.27;1623736;85;26418;-74
2021/04/29 05:07:40;;;;;;;37.50;21.10;;;;;;;7.26;59.24;99915.88;1622964;85;26384;-74
2021/04/29 05:10:09;;;;;;;30.27;21.30;;;;;;;7.37;59.23;99920.76;1647680;85;28465;-74
2021/04/29 05:12:38;;;;;;;31.97;19.42;;;;;;;7.47;59.30;99914.65;1674013;85;26612;-73
2021/04/29 05:15:07;;;;;;;36.50;21.48;;;;;;;7.57;59.23;99918.38;1647667;85;25839;-73
2021/04/29 05:17:34;;;;;;;36.48;19.73;;;;;;;7.65;59.31;99911.63;1625381;85;25876;-73
2021/04/29 05:20:01;;;;;;;32.40;20.25;;;;;;;7.73;59.33;99914.18;1641696;85;25851;-74
2021/04/29 05:22:29;;;;;;;29.77;18.92;;;;;;;7.79;59.34;99910.27;1627502;85;27581;-73
2021/04/29 05:24:56;;;;;;;37.10;20.68;;;;;;;7.89;59.51;99913.16;1647357;85;25904;-74
2021/04/29 05:27:23;;;;;;;37.98;21.52;;;;;;;7.92;59.34;99906.11;1623550;85;25855;-73
2021/04/29 05:29:51;;;;;;;37.17;19.62;;;;;;;8.01;59.56;99909.83;1643521;85;25828;-73
2021/04/29 05:32:18;;;;;;;30.08;19.07;;;;;;;8.09;59.58;99902.21;1644717;85;25769;-74
2021/04/29 05:34:45;;;;;;;31.52;19.50;;;;;;;8.16;59.43;99908.45;1621340;85;27351;-73
2021/04/29 05:37:12;;;;;;;34.60;21.65;;;;;;;8.20;59.64;99902.56;1649347;85;26531;-74
2021/04/29 05:39:40;;;;;;;33.63;20.02;;;;;;;8.28;59.75;99896.30;1633657;85;25824;-75
2021/04/29 05:42:07;;;;;;;29.77;19.05;;;;;;;8.42;59.96;99897.61;1648513;85;25894;-73
2021/04/29 05:44:34;;;;;;;33.42;21.23;;;;;;;8.51;59.67;99891.64;1655248;85;25958;-73
2021/04/29 05:47:02;;;;;;;30.40;20.17;;;;;;;8.63;59.67;99900.78;1637644;85;28547;-74
2021/04/29 05:49:30;;;;;;;36.42;20.60;;;;;;;8.72;59.37;99910.32;1637550;85;25931;-75
2021/04/29 05:51:57;;;;;;;41.98;21.52;;;;;;;8.80;59.49;99904.84;1651129;85;25849;-73
2021/04/29 05:54:24;;;;;;;36.30;20.37;;;;;;;8.88;59.38;99906.53;1650421;85;25439;-73
2021/04/29 05:56:51;;;;;;;31.33;20.23;;;;;;;8.97;59.55;99899.54;1624723;85;25858;-73
2021/04/29 05:59:19;;;;;;;32.98;19.87;;;;;;;9.07;59.52;99907.20;1648202;85;28456;-74
2021/04/29 06:01:46;;;;;;;35.52;20.43;;;;;;;9.15;59.32;99905.22;1643445;85;25785;-73
2021/04/29 06:04:13;;;;;;;34.15;20.52;;;;;;;9.23;59.33;99905.09;1651283;85;25948;-73
2021/04/29 06:06:41;;;;;;;27.17;18.05;;;;;;;9.28;58.87;99903.98;1626091;85;25730;-74
2021/04/29 06:09:08;;;;;;;28.52;20.70;;;;;;;9.34;59.28;99899.72;1637579;85;26439;-76
2021/04/29 06:11:35;;;;;;;30.08;19.55;;;;;;;9.43;59.09;99897.72;1651454;85;28382;-73
2021/04/29 06:14:03;;;;;;;28.38;20.50;;;;;;;9.49;58.97;99897.75;1631672;85;26561;-75
2021/04/29 06:16:30;;;;;;;27.10;17.57;;;;;;;9.61;59.03;99894.00;1632769;85;26111;-73
2021/04/29 06:18:58;;;;;;;26.50;17.73;;;;;;;9.71;59.01;99887.80;1645412;85;26534;-73
2021/04/29 06:21:25;;;;;;;29.35;18.23;;;;;;;9.83;59.15;99896.90;1648216;85;25802;-74
2021/04/29 06:23:52;;;;;;;23.83;17.48;;;;;;;9.94;58.94;99889.11;1647144;85;28310;-74
2021/04/29 06:26:20;;;;;;;27.60;19.15;;;;;;;10.02;58.63;99892.98;1624448;85;25860;-74
2021/04/29 06:28:48;;;;;;;30.27;20.90;;;;;;;10.08;58.54;99886.81;1633802;85;26514;-74
2021/04/29 06:31:15;;;;;;;30.85;20.75;;;;;;;10.15;58.18;99892.22;1631017;85;26523;-73
2021/04/29 06:33:42;;;;;;;29.40;19.10;;;;;;;10.24;58.19;99881.66;1644490;85;25852;-74
2021/04/29 06:36:10;;;;;;;26.00;18.02;;;;;;;10.31;58.35;99883.02;1650858;85;27578;-74
2021/04/29 06:38:37;;;;;;;30.15;18.85;;;;;;;10.38;58.84;99881.16;1630270;85;25945;-74
2021/04/29 06:41:04;;;;;;;25.10;17.73;;;;;;;10.48;58.41;99880.23;1643989;85;25786;-74
2021/04/29 06:43:32;;;;;;;26.40;16.95;;;;;;;10.61;58.55;99878.92;1681684;85;25864;-74
2021/04/29 06:46:00;;;;;;;30.72;19.05;;;;;;;10.67;57.87;99883.48;1653693;85;25783;-74
2021/04/29 06:48:27;;;;;;;29.20;17.52;;;;;;;10.77;58.13;99879.88;1633495;83;27096;-73
2021/04/29 06:50:56;;;;;;;29.30;18.25;;;;;;;10.84;58.07;99884.20;1651378;85;26182;-74
2021/04/29 06:53:23;;;;;;;26.68;18.25;;;;;;;10.94;58.32;99881.13;1658592;83;25759;-74
2021/04/29 06:55:51;;;;;;;28.32;17.82;;;;;;;11.03;58.38;99882.57;1631273;85;25804;-73
2021/04/29 06:58:18;;;;;;;26.42;18.67;;;;;;;11.14;58.49;99885.94;1637191;85;25815;-73
2021/04/29 07:00:46;;;;;;;27.62;19.60;;;;;;;11.26;57.85;99880.78;1660108;83;28493;-73
2021/04/29 07:03:13;;;;;;;22.85;17.45;;;;;;;11.36;57.85;99872.62;1642968;85;25874;-74
2021/04/29 07:05:40;;;;;;;27.67;18.25;;;;;;;11.47;57.91;99872.48;1637426;85;26581;-74
2021/04/29 07:08:09;;;;;;;24.18;17.25;;;;;;;11.52;57.63;99873.53;1650829;85;26449;-73
2021/04/29 07:10:37;;;;;;;38.48;19.45;;;;;;;11.59;57.30;99870.29;1639958;85;26515;-75
2021/04/29 07:13:04;;;;;;;30.75;19.45;;;;;;;11.64;57.09;99865.13;1603275;85;27342;-74
2021/04/29 07:15:31;;;;;;;29.45;19.32;;;;;;;11.69;56.94;99867.20;1604620;85;25811;-73
2021/04/29 07:18:01;;;;;;;26.77;19.27;;;;;;;11.73;56.91;99867.09;1627525;85;25831;-73
2021/04/29 07:23:09;;;;;;;28.07;18.92;;;;;;;11.89;57.02;99864.45;1839379;77;25730;-74
2021/04/29 07:25:37;;;;;;;30.05;19.87;;;;;;;11.87;56.89;99867.33;1792870;78;26075;-74
2021/04/29 07:28:06;;;;;;;29.15;19.67;;;;;;;11.90;56.65;99870.95;1756611;79;27594;-74
2021/04/29 07:30:33;;;;;;;31.75;20.50;;;;;;;11.95;57.14;99866.28;1736039;79;25830;-75
2021/04/29 07:33:00;;;;;;;34.30;20.82;;;;;;;12.01;57.09;99865.42;1760745;78;26060;-74
2021/04/29 07:35:30;;;;;;;36.45;20.77;;;;;;;12.04;56.95;99865.81;1796948;78;25810;-73
2021/04/29 07:37:57;;;;;;;32.15;18.52;;;;;;;12.08;56.36;99856.83;1756064;78;26485;-73
2021/04/29 07:40:24;;;;;;;33.48;20.45;;;;;;;12.10;56.47;99852.87;1748486;81;27531;-74
2021/04/29 07:42:53;;;;;;;34.50;20.25;;;;;;;12.15;56.58;99853.06;1709512;81;25961;-74
2021/04/29 07:45:20;;;;;;;29.48;20.30;;;;;;;12.20;56.34;99852.42;1762238;80;25693;-74
2021/04/29 07:47:48;;;;;;;31.20;20.68;;;;;;;12.20;56.76;99845.70;1710489;81;25924;-74
2021/04/29 07:50:15;;;;;;;30.62;21.00;;;;;;;12.28;56.80;99848.96;1674281;82;26425;-74
2021/04/29 07:52:43;;;;;;;36.08;20.05;;;;;;;12.35;56.51;99847.58;1712006;81;27411;-73
2021/04/29 07:55:13;;;;;;;32.40;19.92;;;;;;;12.49;56.40;99842.95;1753120;81;25801;-74
2021/04/29 07:57:40;;;;;;;32.48;21.70;;;;;;;12.60;56.69;99843.57;1703821;81;25821;-74
2021/04/29 08:00:12;;;;;;;32.15;21.05;;;;;;;12.71;56.42;99838.33;1732221;82;25866;-74
2021/04/29 08:02:41;;;;;;;28.42;21.73;;;;;;;12.77;56.43;99829.39;1691325;83;25744;-75
2021/04/29 08:05:10;;;;;;;34.20;21.90;;;;;;;12.82;56.00;99838.14;1760650;80;28450;-74
2021/04/29 08:07:38;;;;;;;30.65;20.05;;;;;;;12.90;56.77;99830.63;1701062;82;25958;-74
2021/04/29 08:10:08;;;;;;;28.95;20.17;;;;;;;12.99;56.37;99827.96;1727310;81;25780;-74
2021/04/29 08:12:36;;;;;;;35.08;20.90;;;;;;;13.08;56.31;99828.53;1701695;82;25915;-74
2021/04/29 08:15:06;;;;;;;28.00;20.08;;;;;;;13.15;55.82;99823.92;1748639;81;25889;-74
2021/04/29 08:17:33;;;;;;;26.60;19.20;;;;;;;13.18;55.44;99818.08;1710620;81;28050;-74
2021/04/29 08:20:03;;;;;;;27.65;18.23;;;;;;;13.26;56.15;99816.98;1718218;81;25739;-75
2021/04/29 08:22:31;;;;;;;29.30;19.45;;;;;;;13.35;55.51;99817.80;1713066;81;25856;-75
2021/04/29 08:24:58;;;;;;;31.42;18.98;;;;;;;13.44;54.90;99812.43;1743693;81;25695;-74
2021/04/29 08:27:26;;;;;;;24.23;17.52;;;;;;;13.54;55.07;99811.37;1713511;81;26401;-77
2021/04/29 08:29:54;;;;;;;23.77;17.52;;;;;;;13.63;54.66;99813.23;1685204;81;27550;-74
2021/04/29 08:32:22;;;;;;;29.02;17.42;;;;;;;13.71;54.50;99804.84;1703718;82;26822;-73
2021/04/29 08:34:49;;;;;;;26.62;17.30;;;;;;;13.78;54.11;99805.59;1741849;81;25813;-74
2021/04/29 08:37:17;;;;;;;25.95;16.67;;;;;;;13.85;53.83;99803.13;1702783;81;25812;-74
2021/04/29 08:39:47;;;;;;;28.83;17.98;;;;;;;13.92;53.29;99800.36;1730225;81;26002;-74
2021/04/29 08:42:15;;;;;;;26.70;18.05;;;;;;;13.99;53.05;99796.20;1713011;82;27326;-74
2021/04/29 08:44:43;;;;;;;27.02;17.62;;;;;;;14.03;52.87;99794.17;1745813;81;25729;-74
2021/04/29 08:47:11;;;;;;;25.72;16.32;;;;;;;14.09;53.41;99797.33;1686329;82;25865;-74
2021/04/29 08:49:40;;;;;;;26.17;17.92;;;;;;;14.18;53.38;99798.62;1689794;82;25804;-73
2021/04/29 08:52:08;;;;;;;25.25;17.87;;;;;;;14.27;53.47;99798.59;1702621;81;25779;-75
2021/04/29 08:54:38;;;;;;;24.60;17.67;;;;;;;14.32;52.63;99805.50;1743247;81;27539;-74
2021/04/29 08:57:06;;;;;;;26.17;16.65;;;;;;;14.37;51.99;99800.78;1721381;81;26626;-73
2021/04/29 08:59:34;;;;;;;27.58;16.85;;;;;;;14.45;52.22;99797.74;1697256;81;25844;-74
2021/04/29 09:02:01;;;;;;;24.63;16.27;;;;;;;14.53;52.08;99800.92;1721760;82;25839;-74
2021/04/29 09:04:41;;;;;;;26.52;16.27;;;;;;;14.59;51.87;99797.81;1745497;81;25718;-74
2021/04/29 09:07:20;;;;;;;24.95;15.48;;;;;;;14.66;52.24;99802.59;1744602;81;28558;-75
2021/04/29 09:09:48;;;;;;;25.35;16.15;;;;;;;14.79;52.17;99798.33;1687090;81;26508;-75
2021/04/29 09:12:16;;;;;;;21.50;15.88;;;;;;;14.88;51.43;99791.54;1716251;82;25783;-75
2021/04/29 09:14:43;;;;;;;18.05;15.90;;;;;;;14.93;51.03;99781.38;1723908;81;25859;-74
2021/04/29 09:17:11;;;;;;;23.18;16.37;;;;;;;14.98;51.18;99789.59;1725432;81;26464;-75
2021/04/29 09:19:47;;;;;;;24.10;16.77;;;;;;;15.08;51.68;99793.34;1696598;82;27541;-74
2021/04/29 09:22:20;;;;;;;22.27;16.50;;;;;;;15.24;51.36;99779.15;1720415;82;27202;-75
2021/04/29 09:24:49;;;;;;;29.15;16.10;;;;;;;15.38;51.14;99775.64;1737247;82;26499;-75
2021/04/29 09:27:23;;;;;;;28.60;16.73;;;;;;;15.53;51.00;99775.17;1695839;82;26117;-75
2021/04/29 09:30:00;;;;;;;22.07;17.80;;;;;;;15.62;50.96;99781.32;1708993;82;25903;-75
2021/04/29 09:32:31;;;;;;;26.93;17.50;;;;;;;15.69;50.95;99785.23;1707135;83;27356;-75
2021/04/29 09:35:00;;;;;;;;;;;;;;;15.77;49.97;99783.50;1726498;82;26515;-74
2021/04/29 09:37:36;;;;;;;21.30;16.25;;;;;;;15.82;50.41;99778.21;1701515;82;25839;-74
2021/04/29 09:40:08;;;;;;;27.13;17.30;;;;;;;15.88;51.25;99779.95;1706953;82;25722;-74
2021/04/29 09:42:37;;;;;;;25.50;17.85;;;;;;;15.96;49.88;99772.28;1712206;82;25803;-75
2021/04/29 09:45:26;;;;;;;21.55;17.37;;;;;;;16.00;49.19;99770.73;1687596;82;27074;-75
2021/04/29 09:48:04;;;;;;;21.40;16.30;;;;;;;16.06;48.91;99770.28;1740694;81;25777;-75
2021/04/29 09:50:41;;;;;;;25.10;15.45;;;;;;;16.09;49.14;99767.11;1756589;80;25736;-75
2021/04/29 09:57:15;;;;;;;28.10;17.77;;;;;;;16.24;49.09;99759.27;1723199;82;26256;-75
2021/04/29 09:59:45;;;;;;;19.60;15.80;;;;;;;16.39;48.94;99750.08;1725022;82;27515;-75
2021/04/29 10:02:13;;;;;;;24.45;16.10;;;;;;;16.46;48.78;99750.75;1771956;80;26528;-75
2021/04/29 10:04:43;;;;;;;22.40;15.23;;;;;;;16.55;48.72;99747.13;1711952;81;25856;-74
2021/04/29 10:07:11;;;;;;;23.10;15.28;;;;;;;16.62;48.97;99739.12;1699892;82;26035;-74
2021/04/29 10:09:39;;;;;;;25.72;17.23;;;;;;;16.71;48.74;99734.95;1700774;83;26365;-75
2021/04/29 10:12:12;;;;;;;23.75;17.32;;;;;;;16.81;48.37;99731.04;1715853;83;27546;-75
2021/04/29 10:14:47;;;;;;;21.85;13.80;;;;;;;16.89;48.63;99717.64;1699029;82;26530;-74
2021/04/29 10:17:17;;;;;;;16.40;13.35;;;;;;;17.01;48.47;99720.22;1663693;84;25884;-74
2021/04/29 10:19:51;;;;;;;24.35;13.62;;;;;;;17.15;47.08;99708.78;1678160;85;26441;-75
2021/04/29 10:22:19;;;;;;;18.87;13.75;;;;;;;17.23;47.04;99707.02;1701054;81;25611;-74
2021/04/29 10:24:47;;;;;;;24.80;13.25;;;;;;;17.27;46.55;99705.96;1701646;81;28366;-74
2021/04/29 10:27:24;;;;;;;19.60;13.32;;;;;;;17.35;46.54;99704.16;1778337;78;25814;-75
2021/04/29 10:30:06;;;;;;;20.70;13.05;;;;;;;17.37;45.41;99704.73;1787923;78;25752;-74
2021/04/29 10:32:36;;;;;;;16.80;12.33;;;;;;;17.43;45.51;99703.71;1770670;80;25956;-74
2021/04/29 10:35:19;;;;;;;22.07;13.65;;;;;;;17.55;45.83;99699.03;1786834;78;26380;-74
2021/04/29 10:38:02;;;;;;;18.12;12.03;;;;;;;17.68;45.19;99708.91;1780250;78;27533;-74
2021/04/29 10:40:39;;;;;;;17.77;11.88;;;;;;;17.80;45.42;99700.66;1745771;80;26180;-76
2021/04/29 10:43:09;;;;;;;22.42;12.55;;;;;;;17.86;45.38;99701.52;1763780;80;25801;-74
2021/04/29 10:45:36;;;;;;;23.35;13.13;;;;;;;17.94;45.02;99698.36;1700351;82;26302;-74
2021/04/29 10:48:09;;;;;;;16.25;11.57;;;;;;;17.99;43.31;99698.39;1697486;83;26000;-74
2021/04/29 10:50:49;;;;;;;19.10;11.12;;;;;;;17.98;43.90;99690.83;1671275;81;27554;-73
2021/04/29 10:53:31;;;;;;;14.45;11.25;;;;;;;17.96;43.12;99685.38;1727675;81;25821;-74
2021/04/29 10:56:03;;;;;;;18.25;11.78;;;;;;;18.03;44.26;99684.61;1718363;82;25749;-75
2021/04/29 10:58:31;;;;;;;19.52;11.97;;;;;;;18.14;43.80;99676.84;1765143;80;26135;-73
2021/04/29 11:01:06;;;;;;;24.18;13.68;;;;;;;18.20;44.20;99672.57;1796993;78;25490;-74
2021/04/29 11:03:37;;;;;;;18.90;11.90;;;;;;;18.32;44.09;99674.59;1794446;78;27873;-74
2021/04/29 11:06:11;;;;;;;16.82;12.88;;;;;;;18.36;43.55;99670.28;1775516;79;25826;-74
2021/04/29 11:08:52;;;;;;;22.10;12.88;;;;;;;18.34;42.97;99671.61;1758576;78;26290;-75
2021/04/29 11:11:34;;;;;;;16.67;11.97;;;;;;;18.38;43.17;99674.90;1773953;78;26132;-75
2021/04/29 11:14:09;;;;;;;18.70;12.07;;;;;;;18.40;43.68;99671.39;1768592;80;25937;-74
2021/04/29 11:16:54;;;;;;;16.90;11.95;;;;;;;18.44;44.15;99661.69;1799117;78;27533;-74
2021/04/29 11:19:42;;;;;;;18.00;12.30;;;;;;;18.43;43.51;99658.65;1792232;78;26232;-75
2021/04/29 11:22:20;;;;;;;19.45;12.47;;;;;;;18.52;43.81;99662.28;1798811;78;25698;-74
2021/04/29 11:24:50;;;;;;;18.30;12.10;;;;;;;18.61;43.08;99653.38;1771342;78;25962;-75
2021/04/29 11:27:35;;;;;;;13.43;11.93;;;;;;;18.68;43.00;99642.30;1765585;78;25878;-74
2021/04/29 11:30:13;;;;;;;17.65;11.10;;;;;;;18.78;43.81;99643.70;1746358;80;28511;-73
2021/04/29 11:32:46;;;;;;;20.32;11.57;;;;;;;18.86;43.17;99645.95;1780295;78;25873;-73
2021/04/29 11:35:24;;;;;;;14.15;11.18;;;;;;;18.91;43.75;99647.30;1784356;78;25858;-74
2021/04/29 11:37:52;;;;;;;17.10;11.03;;;;;;;18.95;43.44;99634.84;1781763;78;25625;-73
2021/04/29 11:40:20;;;;;;;17.37;11.55;;;;;;;19.02;42.93;99634.89;1754979;78;25846;-75